sensor_id;sensor_type;location;lat;lon;timestamp;pressure;altitude;pressure_sealevel;temperature;humidity
60240;BME280;46102;39.012;-7.064;2023-07-31T10:35:39;98674.66;;;30.70;32.60
60240;BME280;46102;39.012;-7.064;2023-07-31T10:37:41;98669.91;;;30.80;32.62
60240;BME280;46102;39.012;-7.064;2023-07-31T10:39:43;98684.38;;;30.69;31.92
60240;BME280;46102;39.012;-7.064;2023-07-31T10:41:43;98675.44;;;30.70;31.60
60240;BME280;46102;39.012;-7.064;2023-07-31T10:43:46;98668.06;;;30.73;31.96
60240;BME280;46102;39.012;-7.064;2023-07-31T10:45:48;98677.31;;;30.90;32.35
60240;BME280;46102;39.012;-7.064;2023-07-31T10:47:49;98675.50;;;30.96;31.31
60240;BME280;46102;39.012;-7.064;2023-07-31T10:49:50;98669.09;;;30.79;31.76
60240;BME280;46102;39.012;-7.064;2023-07-31T10:51:51;98665.66;;;31.01;31.43
60240;BME280;46102;39.012;-7.064;2023-07-31T10:54:10;98663.47;;;31.18;30.85
60240;BME280;46102;39.012;-7.064;2023-07-31T10:56:11;98664.69;;;31.29;30.91
60240;BME280;46102;39.012;-7.064;2023-07-31T10:58:18;98671.03;;;31.59;30.42
60240;BME280;46102;39.012;-7.064;2023-07-31T11:00:21;98663.16;;;31.76;30.22
60240;BME280;46102;39.012;-7.064;2023-07-31T11:02:26;98667.88;;;31.92;29.43
60240;BME280;46102;39.012;-7.064;2023-07-31T11:04:30;98660.56;;;32.04;29.33
60240;BME280;46102;39.012;-7.064;2023-07-31T11:06:36;98655.78;;;32.13;29.61
60240;BME280;46102;39.012;-7.064;2023-07-31T11:08:47;98665.09;;;32.36;29.06
60240;BME280;46102;39.012;-7.064;2023-07-31T11:10:51;98656.03;;;32.50;29.17
60240;BME280;46102;39.012;-7.064;2023-07-31T11:12:52;98654.91;;;32.70;28.56
60240;BME280;46102;39.012;-7.064;2023-07-31T11:14:56;98661.91;;;32.87;28.83
60240;BME280;46102;39.012;-7.064;2023-07-31T11:16:57;98657.41;;;32.99;28.53
60240;BME280;46102;39.012;-7.064;2023-07-31T11:18:58;98658.09;;;33.12;28.29
60240;BME280;46102;39.012;-7.064;2023-07-31T11:20:58;98655.78;;;33.29;27.77
60240;BME280;46102;39.012;-7.064;2023-07-31T11:23:01;98658.66;;;33.48;27.79
60240;BME280;46102;39.012;-7.064;2023-07-31T11:25:03;98651.00;;;33.67;27.92
60240;BME280;46102;39.012;-7.064;2023-07-31T11:27:07;98658.09;;;33.71;27.56
60240;BME280;46102;39.012;-7.064;2023-07-31T11:29:11;98649.56;;;33.80;27.16
60240;BME280;46102;39.012;-7.064;2023-07-31T11:31:12;98647.97;;;33.89;26.84
60240;BME280;46102;39.012;-7.064;2023-07-31T11:33:13;98655.56;;;34.01;26.98
60240;BME280;46102;39.012;-7.064;2023-07-31T11:35:15;98645.31;;;34.13;26.85
60240;BME280;46102;39.012;-7.064;2023-07-31T11:37:16;98647.81;;;34.29;26.90
60240;BME280;46102;39.012;-7.064;2023-07-31T11:39:17;98646.88;;;34.41;26.04
60240;BME280;46102;39.012;-7.064;2023-07-31T11:41:17;98642.41;;;34.40;25.74
60240;BME280;46102;39.012;-7.064;2023-07-31T11:43:19;98642.44;;;34.50;25.60
60240;BME280;46102;39.012;-7.064;2023-07-31T11:45:21;98638.66;;;34.34;25.97
60240;BME280;46102;39.012;-7.064;2023-07-31T11:47:21;98633.16;;;34.12;26.05
60240;BME280;46102;39.012;-7.064;2023-07-31T11:49:22;98636.00;;;34.12;26.22
60240;BME280;46102;39.012;-7.064;2023-07-31T11:51:23;98624.47;;;34.16;26.16
60240;BME280;46102;39.012;-7.064;2023-07-31T11:53:28;98640.41;;;34.32;26.23
60240;BME280;46102;39.012;-7.064;2023-07-31T11:55:32;98626.88;;;34.60;25.91
60240;BME280;46102;39.012;-7.064;2023-07-31T11:57:33;98625.22;;;34.87;25.49
60240;BME280;46102;39.012;-7.064;2023-07-31T11:59:34;98627.50;;;35.16;25.13
60240;BME280;46102;39.012;-7.064;2023-07-31T12:01:35;98626.13;;;35.35;24.54
60240;BME280;46102;39.012;-7.064;2023-07-31T12:03:36;98626.06;;;35.44;25.11
60240;BME280;46102;39.012;-7.064;2023-07-31T12:05:38;98616.63;;;35.62;24.33
60240;BME280;46102;39.012;-7.064;2023-07-31T12:09:55;98606.22;;;35.74;23.85
60240;BME280;46102;39.012;-7.064;2023-07-31T12:11:56;98604.53;;;35.82;24.13
60240;BME280;46102;39.012;-7.064;2023-07-31T12:13:57;98600.91;;;35.82;24.21
60240;BME280;46102;39.012;-7.064;2023-07-31T12:16:00;98598.69;;;36.01;23.65
60240;BME280;46102;39.012;-7.064;2023-07-31T12:18:11;98600.41;;;36.22;23.26
60240;BME280;46102;39.012;-7.064;2023-07-31T12:20:12;98603.09;;;36.02;23.49
60240;BME280;46102;39.012;-7.064;2023-07-31T12:22:14;98591.56;;;35.81;23.88
60240;BME280;46102;39.012;-7.064;2023-07-31T12:24:18;98592.56;;;35.78;23.87
60240;BME280;46102;39.012;-7.064;2023-07-31T12:26:19;98586.72;;;35.73;23.83
60240;BME280;46102;39.012;-7.064;2023-07-31T12:28:22;98581.03;;;35.73;24.00
60240;BME280;46102;39.012;-7.064;2023-07-31T12:30:32;98587.41;;;35.82;23.66
60240;BME280;46102;39.012;-7.064;2023-07-31T12:32:33;98581.66;;;36.06;23.22
60240;BME280;46102;39.012;-7.064;2023-07-31T12:34:42;98574.09;;;36.03;23.25
60240;BME280;46102;39.012;-7.064;2023-07-31T12:36:44;98568.31;;;36.13;23.14
60240;BME280;46102;39.012;-7.064;2023-07-31T12:38:45;98568.50;;;36.24;23.07
60240;BME280;46102;39.012;-7.064;2023-07-31T12:40:46;98569.78;;;36.38;22.74
60240;BME280;46102;39.012;-7.064;2023-07-31T12:42:47;98574.91;;;36.34;22.81
60240;BME280;46102;39.012;-7.064;2023-07-31T12:44:47;98565.38;;;36.37;22.86
60240;BME280;46102;39.012;-7.064;2023-07-31T12:46:48;98560.69;;;36.54;22.69
60240;BME280;46102;39.012;-7.064;2023-07-31T12:48:49;98557.84;;;36.69;22.51
60240;BME280;46102;39.012;-7.064;2023-07-31T12:50:50;98561.19;;;36.67;22.31
60240;BME280;46102;39.012;-7.064;2023-07-31T12:52:53;98556.88;;;36.57;22.10
60240;BME280;46102;39.012;-7.064;2023-07-31T12:54:53;98549.97;;;36.49;22.39
60240;BME280;46102;39.012;-7.064;2023-07-31T12:56:54;98556.16;;;36.47;22.43
60240;BME280;46102;39.012;-7.064;2023-07-31T12:58:55;98554.41;;;36.20;22.88
60240;BME280;46102;39.012;-7.064;2023-07-31T13:00:56;98555.78;;;36.10;22.87
60240;BME280;46102;39.012;-7.064;2023-07-31T13:02:57;98547.03;;;36.29;22.76
60240;BME280;46102;39.012;-7.064;2023-07-31T13:04:57;98554.03;;;36.42;22.50
60240;BME280;46102;39.012;-7.064;2023-07-31T13:06:58;98562.56;;;36.57;22.17
60240;BME280;46102;39.012;-7.064;2023-07-31T13:08:59;98547.63;;;36.62;22.15
60240;BME280;46102;39.012;-7.064;2023-07-31T13:11:00;98548.88;;;36.76;22.28
60240;BME280;46102;39.012;-7.064;2023-07-31T13:13:01;98555.75;;;36.84;21.70
60240;BME280;46102;39.012;-7.064;2023-07-31T13:15:03;98552.88;;;36.84;21.67
60240;BME280;46102;39.012;-7.064;2023-07-31T13:17:04;98542.59;;;36.93;21.98
60240;BME280;46102;39.012;-7.064;2023-07-31T13:19:05;98541.28;;;37.08;21.58
60240;BME280;46102;39.012;-7.064;2023-07-31T13:21:06;98544.44;;;37.11;21.51
60240;BME280;46102;39.012;-7.064;2023-07-31T13:23:07;98536.81;;;37.22;21.58
60240;BME280;46102;39.012;-7.064;2023-07-31T13:25:08;98532.25;;;36.95;21.70
60240;BME280;46102;39.012;-7.064;2023-07-31T13:27:10;98534.03;;;36.93;21.62
60240;BME280;46102;39.012;-7.064;2023-07-31T13:29:11;98538.03;;;37.01;21.82
60240;BME280;46102;39.012;-7.064;2023-07-31T13:31:12;98533.88;;;37.17;21.15
60240;BME280;46102;39.012;-7.064;2023-07-31T13:33:13;98529.84;;;37.08;21.32
60240;BME280;46102;39.012;-7.064;2023-07-31T13:35:13;98529.72;;;37.18;21.21
60240;BME280;46102;39.012;-7.064;2023-07-31T13:37:14;98519.84;;;37.19;21.42
60240;BME280;46102;39.012;-7.064;2023-07-31T13:39:15;98529.66;;;37.33;21.24
60240;BME280;46102;39.012;-7.064;2023-07-31T13:41:16;98532.00;;;37.34;20.42
60240;BME280;46102;39.012;-7.064;2023-07-31T13:43:17;98528.44;;;37.39;20.25
60240;BME280;46102;39.012;-7.064;2023-07-31T13:45:18;98524.91;;;37.50;20.55
60240;BME280;46102;39.012;-7.064;2023-07-31T13:47:19;98530.78;;;37.41;20.53
60240;BME280;46102;39.012;-7.064;2023-07-31T13:49:19;98517.88;;;37.25;21.04
60240;BME280;46102;39.012;-7.064;2023-07-31T13:51:20;98522.72;;;37.19;21.32
60240;BME280;46102;39.012;-7.064;2023-07-31T13:53:21;98523.22;;;37.17;21.48
60240;BME280;46102;39.012;-7.064;2023-07-31T13:55:22;98526.16;;;37.23;21.48
60240;BME280;46102;39.012;-7.064;2023-07-31T13:57:23;98531.06;;;37.43;20.93
60240;BME280;46102;39.012;-7.064;2023-07-31T13:59:24;98509.84;;;37.49;20.76
60240;BME280;46102;39.012;-7.064;2023-07-31T14:01:24;98516.69;;;37.58;20.79
60240;BME280;46102;39.012;-7.064;2023-07-31T14:03:25;98511.16;;;37.75;20.34
60240;BME280;46102;39.012;-7.064;2023-07-31T14:05:26;98506.84;;;37.85;20.77
60240;BME280;46102;39.012;-7.064;2023-07-31T14:07:27;98509.97;;;37.87;20.56
60240;BME280;46102;39.012;-7.064;2023-07-31T14:09:28;98505.09;;;37.46;20.11
60240;BME280;46102;39.012;-7.064;2023-07-31T14:11:31;98510.34;;;37.27;20.29
60240;BME280;46102;39.012;-7.064;2023-07-31T14:13:32;98501.69;;;37.22;20.28
60240;BME280;46102;39.012;-7.064;2023-07-31T14:15:33;98506.91;;;37.23;20.31
60240;BME280;46102;39.012;-7.064;2023-07-31T14:17:36;98509.34;;;37.30;19.95
60240;BME280;46102;39.012;-7.064;2023-07-31T14:19:37;98492.97;;;37.52;20.25
60240;BME280;46102;39.012;-7.064;2023-07-31T14:21:39;98492.75;;;37.55;19.77
60240;BME280;46102;39.012;-7.064;2023-07-31T14:23:40;98492.44;;;37.53;19.75
60240;BME280;46102;39.012;-7.064;2023-07-31T14:25:41;98488.97;;;37.43;20.05
60240;BME280;46102;39.012;-7.064;2023-07-31T14:27:42;98492.44;;;37.53;20.32
60240;BME280;46102;39.012;-7.064;2023-07-31T14:29:43;98477.66;;;37.55;20.36
60240;BME280;46102;39.012;-7.064;2023-07-31T14:31:43;98490.47;;;37.59;19.72
60240;BME280;46102;39.012;-7.064;2023-07-31T14:33:45;98473.03;;;37.37;20.01
60240;BME280;46102;39.012;-7.064;2023-07-31T14:35:46;98476.94;;;37.39;19.62
60240;BME280;46102;39.012;-7.064;2023-07-31T14:37:47;98472.28;;;37.42;19.42
60240;BME280;46102;39.012;-7.064;2023-07-31T14:39:48;98466.16;;;37.28;19.50
60240;BME280;46102;39.012;-7.064;2023-07-31T14:41:50;98468.88;;;37.38;19.45
60240;BME280;46102;39.012;-7.064;2023-07-31T14:43:51;98467.00;;;37.55;19.76
60240;BME280;46102;39.012;-7.064;2023-07-31T14:45:51;98463.19;;;37.64;19.51
60240;BME280;46102;39.012;-7.064;2023-07-31T14:47:53;98448.44;;;37.71;19.67
60240;BME280;46102;39.012;-7.064;2023-07-31T14:49:54;98460.56;;;37.86;19.65
60240;BME280;46102;39.012;-7.064;2023-07-31T14:51:55;98446.06;;;37.96;19.33
60240;BME280;46102;39.012;-7.064;2023-07-31T14:53:56;98457.22;;;37.94;19.21
60240;BME280;46102;39.012;-7.064;2023-07-31T14:55:57;98439.41;;;37.78;18.79
60240;BME280;46102;39.012;-7.064;2023-07-31T14:57:57;98451.53;;;37.67;18.71
60240;BME280;46102;39.012;-7.064;2023-07-31T14:59:58;98446.78;;;37.59;18.89
60240;BME280;46102;39.012;-7.064;2023-07-31T15:01:59;98449.00;;;37.28;18.29
60240;BME280;46102;39.012;-7.064;2023-07-31T15:04:00;98444.50;;;37.22;18.34
60240;BME280;46102;39.012;-7.064;2023-07-31T15:06:01;98443.25;;;37.23;18.59
60240;BME280;46102;39.012;-7.064;2023-07-31T15:08:05;98446.28;;;37.40;18.37
60240;BME280;46102;39.012;-7.064;2023-07-31T15:10:07;98432.81;;;37.46;18.32
60240;BME280;46102;39.012;-7.064;2023-07-31T15:12:08;98442.44;;;37.43;18.17
60240;BME280;46102;39.012;-7.064;2023-07-31T15:14:09;98445.34;;;37.48;17.73
60240;BME280;46102;39.012;-7.064;2023-07-31T15:16:09;98443.78;;;37.47;17.62
60240;BME280;46102;39.012;-7.064;2023-07-31T15:18:10;98438.50;;;37.40;17.67
60240;BME280;46102;39.012;-7.064;2023-07-31T15:20:11;98429.66;;;37.38;17.61
60240;BME280;46102;39.012;-7.064;2023-07-31T15:22:13;98428.06;;;37.37;17.93
60240;BME280;46102;39.012;-7.064;2023-07-31T15:24:13;98424.59;;;37.27;18.18
60240;BME280;46102;39.012;-7.064;2023-07-31T15:26:14;98419.59;;;37.22;18.31
60240;BME280;46102;39.012;-7.064;2023-07-31T15:28:15;98423.69;;;37.16;18.37
60240;BME280;46102;39.012;-7.064;2023-07-31T15:30:16;98418.16;;;37.12;17.71
60240;BME280;46102;39.012;-7.064;2023-07-31T15:32:17;98422.94;;;37.00;17.43
60240;BME280;46102;39.012;-7.064;2023-07-31T15:34:18;98428.13;;;37.02;17.84
60240;BME280;46102;39.012;-7.064;2023-07-31T15:36:19;98422.44;;;37.02;17.56
60240;BME280;46102;39.012;-7.064;2023-07-31T15:38:20;98429.81;;;37.08;17.44
60240;BME280;46102;39.012;-7.064;2023-07-31T15:40:21;98426.00;;;37.17;17.97
60240;BME280;46102;39.012;-7.064;2023-07-31T15:42:21;98433.81;;;37.17;18.00
60240;BME280;46102;39.012;-7.064;2023-07-31T15:44:22;98423.41;;;37.14;17.32
60240;BME280;46102;39.012;-7.064;2023-07-31T15:46:23;98417.44;;;36.97;17.58
60240;BME280;46102;39.012;-7.064;2023-07-31T15:48:24;98414.97;;;36.84;17.58
60240;BME280;46102;39.012;-7.064;2023-07-31T15:50:25;98412.09;;;36.84;17.55
60240;BME280;46102;39.012;-7.064;2023-07-31T15:52:25;98413.72;;;36.91;17.60
60240;BME280;46102;39.012;-7.064;2023-07-31T15:54:26;98419.16;;;36.88;17.33
60240;BME280;46102;39.012;-7.064;2023-07-31T15:56:30;98414.44;;;36.85;17.65
60240;BME280;46102;39.012;-7.064;2023-07-31T15:58:31;98409.44;;;36.80;17.76
60240;BME280;46102;39.012;-7.064;2023-07-31T16:00:33;98410.47;;;36.77;18.01
60240;BME280;46102;39.012;-7.064;2023-07-31T16:02:34;98420.69;;;36.84;17.98
60240;BME280;46102;39.012;-7.064;2023-07-31T16:04:35;98414.97;;;36.84;17.65
60240;BME280;46102;39.012;-7.064;2023-07-31T16:06:36;98410.19;;;36.75;17.80
60240;BME280;46102;39.012;-7.064;2023-07-31T16:08:37;98427.50;;;36.72;17.59
60240;BME280;46102;39.012;-7.064;2023-07-31T16:10:41;98419.38;;;36.64;17.36
60240;BME280;46102;39.012;-7.064;2023-07-31T16:12:42;98405.69;;;36.54;17.47
60240;BME280;46102;39.012;-7.064;2023-07-31T16:14:43;98406.19;;;36.52;17.78
60240;BME280;46102;39.012;-7.064;2023-07-31T16:16:45;98417.59;;;36.52;17.78
60240;BME280;46102;39.012;-7.064;2023-07-31T16:18:47;98410.75;;;36.44;18.02
60240;BME280;46102;39.012;-7.064;2023-07-31T16:20:47;98411.56;;;36.30;17.85
60240;BME280;46102;39.012;-7.064;2023-07-31T16:22:49;98423.63;;;36.19;18.09
60240;BME280;46102;39.012;-7.064;2023-07-31T16:24:50;98408.66;;;36.09;18.48
60240;BME280;46102;39.012;-7.064;2023-07-31T16:26:51;98402.91;;;35.74;18.46
60240;BME280;46102;39.012;-7.064;2023-07-31T16:28:52;98406.34;;;35.63;18.69
60240;BME280;46102;39.012;-7.064;2023-07-31T16:30:53;98401.09;;;35.61;18.47
60240;BME280;46102;39.012;-7.064;2023-07-31T16:32:55;98409.06;;;35.57;18.45
60240;BME280;46102;39.012;-7.064;2023-07-31T16:34:55;98408.09;;;35.60;18.83
60240;BME280;46102;39.012;-7.064;2023-07-31T16:36:56;98399.34;;;35.64;18.37
60240;BME280;46102;39.012;-7.064;2023-07-31T16:38:58;98398.09;;;35.65;18.40
60240;BME280;46102;39.012;-7.064;2023-07-31T16:40:59;98397.78;;;35.63;18.20
60240;BME280;46102;39.012;-7.064;2023-07-31T16:42:59;98399.06;;;35.62;18.10
60240;BME280;46102;39.012;-7.064;2023-07-31T16:45:00;98402.06;;;35.43;17.99
60240;BME280;46102;39.012;-7.064;2023-07-31T16:47:01;98403.66;;;35.30;18.42
60240;BME280;46102;39.012;-7.064;2023-07-31T16:49:02;98402.06;;;35.14;18.24
60240;BME280;46102;39.012;-7.064;2023-07-31T16:51:04;98399.09;;;34.84;18.12
60240;BME280;46102;39.012;-7.064;2023-07-31T16:53:05;98408.59;;;34.81;18.12
60240;BME280;46102;39.012;-7.064;2023-07-31T16:55:06;98397.72;;;34.79;18.72
60240;BME280;46102;39.012;-7.064;2023-07-31T16:57:07;98398.88;;;34.73;18.79
60240;BME280;46102;39.012;-7.064;2023-07-31T16:59:08;98393.56;;;34.66;18.33
60240;BME280;46102;39.012;-7.064;2023-07-31T17:01:09;98398.31;;;34.59;18.63
60240;BME280;46102;39.012;-7.064;2023-07-31T17:03:10;98395.81;;;34.52;19.07
60240;BME280;46102;39.012;-7.064;2023-07-31T17:05:11;98392.53;;;34.45;19.04
60240;BME280;46102;39.012;-7.064;2023-07-31T17:07:11;98391.13;;;34.40;18.87
60240;BME280;46102;39.012;-7.064;2023-07-31T17:09:13;98396.16;;;34.45;19.24
60240;BME280;46102;39.012;-7.064;2023-07-31T17:11:14;98394.50;;;34.38;18.95
60240;BME280;46102;39.012;-7.064;2023-07-31T17:13:15;98390.41;;;34.30;18.94
60240;BME280;46102;39.012;-7.064;2023-07-31T17:15:16;98396.88;;;34.31;19.46
60240;BME280;46102;39.012;-7.064;2023-07-31T17:17:17;98385.09;;;34.23;18.67
60240;BME280;46102;39.012;-7.064;2023-07-31T17:19:18;98388.44;;;34.12;18.82
60240;BME280;46102;39.012;-7.064;2023-07-31T17:21:18;98392.25;;;34.09;19.05
60240;BME280;46102;39.012;-7.064;2023-07-31T17:23:19;98388.94;;;34.01;19.47
60240;BME280;46102;39.012;-7.064;2023-07-31T17:25:20;98393.44;;;33.84;19.72
60240;BME280;46102;39.012;-7.064;2023-07-31T17:27:21;98390.00;;;33.80;19.04
60240;BME280;46102;39.012;-7.064;2023-07-31T17:29:28;98386.88;;;33.69;19.76
60240;BME280;46102;39.012;-7.064;2023-07-31T17:31:29;98386.09;;;33.59;19.80
60240;BME280;46102;39.012;-7.064;2023-07-31T17:33:30;98390.66;;;33.56;19.49
60240;BME280;46102;39.012;-7.064;2023-07-31T17:35:31;98383.09;;;33.53;19.59
60240;BME280;46102;39.012;-7.064;2023-07-31T17:37:32;98389.09;;;33.46;20.23
60240;BME280;46102;39.012;-7.064;2023-07-31T17:39:33;98388.00;;;33.34;19.85
60240;BME280;46102;39.012;-7.064;2023-07-31T17:41:34;98391.81;;;33.22;20.81
60240;BME280;46102;39.012;-7.064;2023-07-31T17:43:35;98385.50;;;33.18;21.21
60240;BME280;46102;39.012;-7.064;2023-07-31T17:45:36;98392.94;;;33.15;20.94
60240;BME280;46102;39.012;-7.064;2023-07-31T17:47:37;98382.69;;;33.09;20.95
60240;BME280;46102;39.012;-7.064;2023-07-31T17:49:38;98380.81;;;33.06;21.17
60240;BME280;46102;39.012;-7.064;2023-07-31T17:51:38;98389.31;;;33.06;21.51
60240;BME280;46102;39.012;-7.064;2023-07-31T17:53:40;98383.59;;;32.96;21.43
60240;BME280;46102;39.012;-7.064;2023-07-31T17:55:41;98379.50;;;32.88;21.84
60240;BME280;46102;39.012;-7.064;2023-07-31T17:57:42;98371.91;;;32.76;21.74
60240;BME280;46102;39.012;-7.064;2023-07-31T17:59:43;98377.91;;;32.69;21.64
60240;BME280;46102;39.012;-7.064;2023-07-31T18:01:45;98388.63;;;32.65;21.78
60240;BME280;46102;39.012;-7.064;2023-07-31T18:03:46;98386.09;;;32.58;21.56
60240;BME280;46102;39.012;-7.064;2023-07-31T18:05:46;98384.81;;;32.49;22.13
60240;BME280;46102;39.012;-7.064;2023-07-31T18:07:47;98390.94;;;32.39;22.09
60240;BME280;46102;39.012;-7.064;2023-07-31T18:09:48;98392.00;;;32.32;22.21
60240;BME280;46102;39.012;-7.064;2023-07-31T18:11:49;98381.59;;;32.29;22.20
60240;BME280;46102;39.012;-7.064;2023-07-31T18:13:49;98380.66;;;32.23;22.41
60240;BME280;46102;39.012;-7.064;2023-07-31T18:15:50;98382.84;;;32.19;22.57
60240;BME280;46102;39.012;-7.064;2023-07-31T18:17:51;98384.25;;;32.14;22.83
60240;BME280;46102;39.012;-7.064;2023-07-31T18:19:52;98383.47;;;32.13;23.09
60240;BME280;46102;39.012;-7.064;2023-07-31T18:21:53;98383.91;;;32.12;22.58
60240;BME280;46102;39.012;-7.064;2023-07-31T18:23:54;98392.72;;;32.05;22.46
60240;BME280;46102;39.012;-7.064;2023-07-31T18:25:55;98390.97;;;31.98;22.41
60240;BME280;46102;39.012;-7.064;2023-07-31T18:27:55;98381.13;;;31.90;22.48
60240;BME280;46102;39.012;-7.064;2023-07-31T18:29:56;98393.38;;;31.78;23.24
60240;BME280;46102;39.012;-7.064;2023-07-31T18:31:57;98394.56;;;31.67;23.20
60240;BME280;46102;39.012;-7.064;2023-07-31T18:33:58;98392.63;;;31.55;23.65
60240;BME280;46102;39.012;-7.064;2023-07-31T18:36:02;98396.03;;;31.50;23.48
60240;BME280;46102;39.012;-7.064;2023-07-31T18:38:03;98396.31;;;31.43;23.44
60240;BME280;46102;39.012;-7.064;2023-07-31T18:40:04;98395.75;;;31.35;22.56
60240;BME280;46102;39.012;-7.064;2023-07-31T18:42:06;98401.38;;;31.26;22.70
60240;BME280;46102;39.012;-7.064;2023-07-31T18:44:07;98396.88;;;31.16;22.95
60240;BME280;46102;39.012;-7.064;2023-07-31T18:46:08;98405.19;;;31.10;23.02
60240;BME280;46102;39.012;-7.064;2023-07-31T18:48:08;98396.94;;;31.03;22.68
60240;BME280;46102;39.012;-7.064;2023-07-31T18:50:09;98403.66;;;30.96;23.32
60240;BME280;46102;39.012;-7.064;2023-07-31T18:52:10;98398.78;;;30.84;23.44
60240;BME280;46102;39.012;-7.064;2023-07-31T18:54:11;98405.50;;;30.77;23.68
60240;BME280;46102;39.012;-7.064;2023-07-31T18:56:11;98401.66;;;30.71;23.95
60240;BME280;46102;39.012;-7.064;2023-07-31T18:58:12;98401.13;;;30.63;23.72
60240;BME280;46102;39.012;-7.064;2023-07-31T19:00:13;98401.72;;;30.58;24.19
60240;BME280;46102;39.012;-7.064;2023-07-31T19:02:14;98407.41;;;30.45;23.77
60240;BME280;46102;39.012;-7.064;2023-07-31T19:04:15;98403.09;;;30.41;23.66
60240;BME280;46102;39.012;-7.064;2023-07-31T19:06:16;98410.38;;;30.29;24.03
60240;BME280;46102;39.012;-7.064;2023-07-31T19:08:16;98414.75;;;30.17;24.49
60240;BME280;46102;39.012;-7.064;2023-07-31T19:10:17;98414.97;;;30.10;24.42
60240;BME280;46102;39.012;-7.064;2023-07-31T19:12:18;98412.59;;;29.96;24.53
60240;BME280;46102;39.012;-7.064;2023-07-31T19:14:19;98407.06;;;29.92;25.04
60240;BME280;46102;39.012;-7.064;2023-07-31T19:16:19;98416.53;;;29.85;25.38
60240;BME280;46102;39.012;-7.064;2023-07-31T19:18:20;98410.00;;;29.76;25.36
60240;BME280;46102;39.012;-7.064;2023-07-31T19:20:21;98415.88;;;29.68;25.73
60240;BME280;46102;39.012;-7.064;2023-07-31T19:22:22;98416.94;;;29.58;25.69
60240;BME280;46102;39.012;-7.064;2023-07-31T19:24:22;98418.16;;;29.44;25.94
60240;BME280;46102;39.012;-7.064;2023-07-31T19:26:24;98421.53;;;29.39;25.94
60240;BME280;46102;39.012;-7.064;2023-07-31T19:28:25;98418.22;;;29.28;26.57
60240;BME280;46102;39.012;-7.064;2023-07-31T19:30:26;98422.25;;;29.14;26.91
60240;BME280;46102;39.012;-7.064;2023-07-31T19:32:27;98415.19;;;29.06;27.29
60240;BME280;46102;39.012;-7.064;2023-07-31T19:34:28;98421.38;;;29.01;27.43
60240;BME280;46102;39.012;-7.064;2023-07-31T19:36:29;98413.53;;;28.92;27.38
60240;BME280;46102;39.012;-7.064;2023-07-31T19:38:29;98423.91;;;28.82;27.93
60240;BME280;46102;39.012;-7.064;2023-07-31T19:40:30;98429.28;;;28.77;27.68
60240;BME280;46102;39.012;-7.064;2023-07-31T19:42:31;98433.41;;;28.72;28.30
60240;BME280;46102;39.012;-7.064;2023-07-31T19:44:36;98425.56;;;28.63;28.16
60240;BME280;46102;39.012;-7.064;2023-07-31T19:46:36;98428.78;;;28.49;28.42
60240;BME280;46102;39.012;-7.064;2023-07-31T19:48:37;98430.84;;;28.45;28.81
60240;BME280;46102;39.012;-7.064;2023-07-31T19:50:38;98430.94;;;28.41;29.12
60240;BME280;46102;39.012;-7.064;2023-07-31T19:52:39;98438.84;;;28.30;28.99
60240;BME280;46102;39.012;-7.064;2023-07-31T19:54:41;98445.91;;;28.22;29.29
60240;BME280;46102;39.012;-7.064;2023-07-31T19:56:42;98452.94;;;28.14;29.71
60240;BME280;46102;39.012;-7.064;2023-07-31T19:58:43;98449.06;;;28.08;29.62
60240;BME280;46102;39.012;-7.064;2023-07-31T20:00:44;98450.00;;;28.01;29.66
60240;BME280;46102;39.012;-7.064;2023-07-31T20:02:44;98461.38;;;27.97;29.79
60240;BME280;46102;39.012;-7.064;2023-07-31T20:04:45;98455.91;;;27.90;29.70
60240;BME280;46102;39.012;-7.064;2023-07-31T20:06:46;98470.06;;;27.87;29.80
60240;BME280;46102;39.012;-7.064;2023-07-31T20:08:47;98460.88;;;27.82;30.10
60240;BME280;46102;39.012;-7.064;2023-07-31T20:10:48;98467.38;;;27.79;30.16
60240;BME280;46102;39.012;-7.064;2023-07-31T20:12:48;98465.94;;;27.71;30.34
60240;BME280;46102;39.012;-7.064;2023-07-31T20:14:49;98483.00;;;27.64;30.46
60240;BME280;46102;39.012;-7.064;2023-07-31T20:16:50;98475.50;;;27.57;30.91
60240;BME280;46102;39.012;-7.064;2023-07-31T20:18:51;98483.31;;;27.50;31.39
60240;BME280;46102;39.012;-7.064;2023-07-31T20:20:51;98480.31;;;27.37;31.72
60240;BME280;46102;39.012;-7.064;2023-07-31T20:22:52;98486.75;;;27.37;31.94
60240;BME280;46102;39.012;-7.064;2023-07-31T20:24:53;98475.63;;;27.30;32.13
60240;BME280;46102;39.012;-7.064;2023-07-31T20:26:54;98481.50;;;27.16;32.45
60240;BME280;46102;39.012;-7.064;2023-07-31T20:28:55;98475.16;;;27.12;32.39
60240;BME280;46102;39.012;-7.064;2023-07-31T20:30:55;98481.63;;;27.09;32.66
60240;BME280;46102;39.012;-7.064;2023-07-31T20:32:56;98483.38;;;27.03;32.88
60240;BME280;46102;39.012;-7.064;2023-07-31T20:34:57;98493.09;;;26.98;33.05
60240;BME280;46102;39.012;-7.064;2023-07-31T20:36:58;98496.75;;;26.95;33.38
60240;BME280;46102;39.012;-7.064;2023-07-31T20:38:58;98497.25;;;26.90;33.65
60240;BME280;46102;39.012;-7.064;2023-07-31T20:40:59;98499.03;;;26.80;33.91
60240;BME280;46102;39.012;-7.064;2023-07-31T20:43:00;98501.53;;;26.74;34.15
60240;BME280;46102;39.012;-7.064;2023-07-31T20:45:01;98503.31;;;26.65;34.32
60240;BME280;46102;39.012;-7.064;2023-07-31T20:47:02;98500.50;;;26.65;34.55
60240;BME280;46102;39.012;-7.064;2023-07-31T20:49:02;98510.63;;;26.58;34.69
60240;BME280;46102;39.012;-7.064;2023-07-31T20:51:03;98507.88;;;26.55;34.54
60240;BME280;46102;39.012;-7.064;2023-07-31T20:53:04;98505.88;;;26.52;34.80
60240;BME280;46102;39.012;-7.064;2023-07-31T20:55:05;98505.13;;;26.48;34.79
60240;BME280;46102;39.012;-7.064;2023-07-31T20:57:06;98503.59;;;26.43;34.85
60240;BME280;46102;39.012;-7.064;2023-07-31T20:59:07;98500.88;;;26.40;35.20
60240;BME280;46102;39.012;-7.064;2023-07-31T21:01:08;98515.41;;;26.34;35.63
60240;BME280;46102;39.012;-7.064;2023-07-31T21:03:10;98505.84;;;26.28;35.53
60240;BME280;46102;39.012;-7.064;2023-07-31T21:05:11;98506.34;;;26.23;35.85
60240;BME280;46102;39.012;-7.064;2023-07-31T21:07:11;98510.03;;;26.16;35.99
60240;BME280;46102;39.012;-7.064;2023-07-31T21:09:15;98516.19;;;26.08;36.49
60240;BME280;46102;39.012;-7.064;2023-07-31T21:11:16;98519.81;;;26.05;36.66